Time;durP1;ratioP1;P1;durP2;ratioP2;P2;SDS_P1;SDS_P2;PMS_P1;PMS_P2;Temp;Humidity;BMP_temperature;BMP_pressure;BME280_temperature;BME280_humidity;BME280_pressure;Samples;Min_cycle;Max_cycle;Signal;HPM_P1;HPM_P2
2022/03/18 00:00:34;;;;;;;;;;;4.30;99.90;;;;;;5115932;28;20010;-72
2022/03/18 00:02:59;;;;;;;;;;;4.30;99.90;;;;;;5097927;28;20382;-69
2022/03/18 00:05:25;;;;;;;;;;;4.60;99.90;;;;;;5115814;28;19923;-69
2022/03/18 00:07:51;;;;;;;;;;;5.10;99.90;;;;;;5097885;28;20397;-69
2022/03/18 00:10:20;;;;;;;;;;;4.30;99.90;;;;;;5115542;28;19950;-69
2022/03/18 00:12:46;;;;;;;;;;;5.10;99.90;;;;;;5097525;28;19931;-68
2022/03/18 00:15:12;;;;;;;;;;;5.50;99.90;;;;;;5115716;28;19924;-69
2022/03/18 00:17:38;;;;;;;;;;;4.20;99.90;;;;;;5115663;28;19923;-69
2022/03/18 00:20:05;;;;;;;;;;;4.40;99.90;;;;;;5115677;28;20389;-69
2022/03/18 00:22:30;;;;;;;;;;;4.10;99.90;;;;;;5115421;28;19953;-70
2022/03/18 00:24:56;;;;;;;;;;;4.50;99.90;;;;;;5097459;28;19924;-71
2022/03/18 00:27:23;;;;;;;;;;;4.00;99.90;;;;;;5115272;28;19923;-69
2022/03/18 00:29:49;;;;;;;;;;;4.00;99.90;;;;;;5115267;28;19928;-69
2022/03/18 00:32:15;;;;;;;;;;;4.00;99.90;;;;;;5097121;28;19924;-68
2022/03/18 00:34:40;;;;;;;;;;;4.10;99.90;;;;;;5115321;28;19928;-69
2022/03/18 00:37:07;;;;;;;;;;;4.60;99.90;;;;;;5115297;28;20298;-69
2022/03/18 00:39:32;;;;;;;;;;;4.10;99.90;;;;;;5097136;28;19924;-70
2022/03/18 00:41:58;;;;;;;;;;;4.00;99.90;;;;;;5096729;28;20431;-68
2022/03/18 00:44:25;;;;;;;;;;;4.00;99.90;;;;;;5097326;28;19924;-71
2022/03/18 00:46:54;;;;;;;;;;;5.20;99.90;;;;;;5115079;28;20022;-72
2022/03/18 00:52:05;;;;;;;;;;;5.50;99.90;;;;;;5114786;28;19945;-69
2022/03/18 00:54:31;;;;;;;;;;;4.00;99.90;;;;;;5114737;28;19928;-70
2022/03/18 00:56:56;;;;;;;;;;;3.90;99.90;;;;;;5096638;28;19972;-70
2022/03/18 00:59:22;;;;;;;;;;;5.80;99.90;;;;;;5097039;28;19933;-71
2022/03/18 01:01:52;;;;;;;;;;;4.00;99.90;;;;;;5114950;28;19924;-72
2022/03/18 01:04:18;;;;;;;;;;;4.50;99.90;;;;;;5096775;28;19931;-70
2022/03/18 01:06:44;;;;;;;;;;;4.80;99.90;;;;;;5114539;28;19931;-68
2022/03/18 01:09:10;;;;;;;;;;;4.00;99.90;;;;;;5114613;28;19924;-70
2022/03/18 01:11:35;;;;;;;;;;;4.60;99.90;;;;;;5114392;28;19953;-71
2022/03/18 01:14:01;;;;;;;;;;;5.00;99.90;;;;;;5114656;28;20498;-69
2022/03/18 01:16:26;;;;;;;;;;;4.00;99.90;;;;;;5114574;28;19924;-71
2022/03/18 01:18:52;;;;;;;;;;;4.20;99.90;;;;;;5114532;28;19930;-69
2022/03/18 01:21:17;;;;;;;;;;;4.10;99.90;;;;;;5096385;28;19976;-69
2022/03/18 01:23:43;;;;;;;;;;;5.00;99.90;;;;;;5114337;28;19927;-69
2022/03/18 01:26:09;;;;;;;;;;;4.00;99.90;;;;;;5096333;28;19924;-68
2022/03/18 01:28:35;;;;;;;;;;;5.20;99.90;;;;;;5114470;28;19931;-69
2022/03/18 01:31:00;;;;;;;;;;;3.80;99.90;;;;;;5096108;28;19928;-70
2022/03/18 01:33:26;;;;;;;;;;;4.00;99.90;;;;;;5114297;28;19946;-69
2022/03/18 01:35:51;;;;;;;;;;;4.40;99.90;;;;;;5114296;28;19924;-69
2022/03/18 01:38:17;;;;;;;;;;;4.60;99.90;;;;;;5096347;28;20412;-70
2022/03/18 01:40:43;;;;;;;;;;;4.20;99.90;;;;;;5096245;28;20367;-69
2022/03/18 01:43:11;;;;;;;;;;;4.00;99.90;;;;;;5113970;28;20294;-68
2022/03/18 01:45:38;;;;;;;;;;;4.00;99.90;;;;;;5114294;28;19947;-68
2022/03/18 01:48:04;;;;;;;;;;;5.30;99.90;;;;;;5113877;28;19989;-72
2022/03/18 01:50:30;;;;;;;;;;;4.00;99.90;;;;;;5095997;28;19982;-70
2022/03/18 01:52:56;;;;;;;;;;;4.00;99.90;;;;;;5096246;28;19982;-68
2022/03/18 01:55:22;;;;;;;;;;;5.30;99.90;;;;;;5114007;28;19981;-69
2022/03/18 01:57:49;;;;;;;;;;;4.60;99.90;;;;;;5113874;28;20290;-69
2022/03/18 02:00:15;;;;;;;;;;;4.00;99.90;;;;;;5114214;28;19928;-72
2022/03/18 02:02:40;;;;;;;;;;;4.10;99.90;;;;;;5118238;28;19974;-69
2022/03/18 02:05:06;;;;;;;;;;;4.30;99.90;;;;;;5100033;28;20008;-72
2022/03/18 02:07:32;;;;;;;;;;;4.10;99.90;;;;;;5118130;28;19939;-69
2022/03/18 02:09:58;;;;;;;;;;;4.10;99.90;;;;;;5099857;28;19924;-70
2022/03/18 02:12:24;;;;;;;;;;;4.10;99.90;;;;;;5099584;28;19924;-69
2022/03/18 02:14:49;;;;;;;;;;;4.00;99.90;;;;;;5118129;28;19967;-69
2022/03/18 02:17:16;;;;;;;;;;;4.00;99.90;;;;;;5083222;28;20279;-69
2022/03/18 02:19:43;;;;;;;;;;;4.30;99.90;;;;;;5099935;28;20409;-70
2022/03/18 02:22:28;;;;;;;;;;;5.40;99.90;;;;;;5117857;28;20237;-68
2022/03/18 02:24:55;;;;;;;;;;;3.90;99.90;;;;;;5106369;28;19931;-69
2022/03/18 02:27:21;;;;;;;;;;;4.40;99.90;;;;;;5133392;27;20360;-69
2022/03/18 02:29:47;;;;;;;;;;;4.80;99.90;;;;;;5117559;28;19975;-69
2022/03/18 02:32:13;;;;;;;;;;;3.90;99.90;;;;;;5099650;28;19924;-69
2022/03/18 02:34:39;;;;;;;;;;;3.90;99.90;;;;;;5117672;28;20022;-69
2022/03/18 02:37:05;;;;;;;;;;;3.80;99.90;;;;;;5117527;28;19930;-69
2022/03/18 02:39:31;;;;;;;;;;;5.00;99.90;;;;;;5117398;28;19927;-69
2022/03/18 02:41:57;;;;;;;;;;;3.90;99.90;;;;;;5117287;28;19923;-70
2022/03/18 02:44:23;;;;;;;;;;;3.80;99.90;;;;;;5117488;28;19924;-72
2022/03/18 02:46:48;;;;;;;;;;;4.90;99.90;;;;;;5117460;28;19931;-69
2022/03/18 02:49:14;;;;;;;;;;;3.70;99.90;;;;;;5117103;28;19931;-69
2022/03/18 02:51:40;;;;;;;;;;;4.30;99.90;;;;;;5098970;28;19931;-71
2022/03/18 02:54:05;;;;;;;;;;;5.30;99.90;;;;;;5099178;28;19931;-68
2022/03/18 02:56:31;;;;;;;;;;;2.50;99.90;;;;;;5117038;28;20011;-69
2022/03/18 02:58:57;;;;;;;;;;;4.30;99.90;;;;;;5117284;28;19978;-69
2022/03/18 03:01:23;;;;;;;;;;;4.00;99.90;;;;;;5117135;28;20378;-69
2022/03/18 03:03:48;;;;;;;;;;;4.10;99.90;;;;;;5117087;28;20358;-69
2022/03/18 03:08:58;;;;;;;;;;;3.80;99.90;;;;;;5116837;28;19939;-69
2022/03/18 03:11:24;;;;;;;;;;;5.00;99.90;;;;;;5116146;28;19924;-72
2022/03/18 03:13:50;;;;;;;;;;;5.60;99.90;;;;;;5098516;28;19924;-73
2022/03/18 03:16:15;;;;;;;;;;;4.10;99.90;;;;;;5116907;28;19924;-70
2022/03/18 03:18:41;;;;;;;;;;;4.20;99.90;;;;;;5116752;28;19924;-69
2022/03/18 03:21:06;;;;;;;;;;;5.50;99.90;;;;;;5098738;28;19923;-71
2022/03/18 03:23:32;;;;;;;;;;;4.00;99.90;;;;;;5098723;28;19931;-69
2022/03/18 03:25:57;;;;;;;;;;;5.20;99.90;;;;;;5098251;28;19924;-73
2022/03/18 03:28:23;;;;;;;;;;;4.60;99.90;;;;;;5134536;27;19930;-70
2022/03/18 03:30:49;;;;;;;;;;;4.00;99.90;;;;;;5118557;27;20298;-68
2022/03/18 03:33:14;;;;;;;;;;;4.20;99.90;;;;;;5137051;27;20417;-70
2022/03/18 03:35:40;;;;;;;;;;;4.00;99.90;;;;;;5136942;27;19928;-71
2022/03/18 03:38:06;;;;;;;;;;;4.00;99.90;;;;;;5136902;27;19924;-68
2022/03/18 03:40:32;;;;;;;;;;;3.90;99.90;;;;;;5136783;27;19992;-68
2022/03/18 03:42:57;;;;;;;;;;;4.70;99.90;;;;;;5117840;27;20022;-69
2022/03/18 03:45:23;;;;;;;;;;;3.90;99.90;;;;;;5135943;27;19923;-69
2022/03/18 03:47:49;;;;;;;;;;;2.60;99.90;;;;;;5118736;27;20408;-69
2022/03/18 03:50:15;;;;;;;;;;;4.40;99.90;;;;;;5118515;27;19924;-69
2022/03/18 03:52:40;;;;;;;;;;;3.90;99.90;;;;;;5135769;27;20052;-69
2022/03/18 03:55:06;;;;;;;;;;;3.90;99.90;;;;;;5118230;27;19994;-72
2022/03/18 03:57:32;;;;;;;;;;;3.90;99.90;;;;;;5136259;27;19924;-72
2022/03/18 03:59:58;;;;;;;;;;;3.90;99.90;;;;;;5135656;27;19931;-71
2022/03/18 04:02:24;;;;;;;;;;;3.90;99.90;;;;;;5136424;27;19938;-69
2022/03/18 04:04:49;;;;;;;;;;;5.10;99.90;;;;;;5136518;27;19984;-69
2022/03/18 04:07:15;;;;;;;;;;;5.30;99.90;;;;;;5136382;27;19930;-69
2022/03/18 04:09:41;;;;;;;;;;;3.90;99.90;;;;;;5151835;27;19950;-68
2022/03/18 04:12:07;;;;;;;;;;;3.90;99.90;;;;;;5136130;27;19930;-68
2022/03/18 04:14:32;;;;;;;;;;;3.90;99.90;;;;;;5136322;27;20370;-69
2022/03/18 04:16:58;;;;;;;;;;;3.90;99.90;;;;;;5136343;27;19924;-69
2022/03/18 04:19:23;;;;;;;;;;;4.30;99.90;;;;;;5136114;27;19992;-69
2022/03/18 04:21:49;;;;;;;;;;;4.60;99.90;;;;;;5136038;27;19923;-72
2022/03/18 04:24:15;;;;;;;;;;;4.20;99.90;;;;;;5135165;27;19923;-69
2022/03/18 04:26:41;;;;;;;;;;;3.80;99.90;;;;;;5148520;27;20373;-69
2022/03/18 04:29:08;;;;;;;;;;;5.40;99.90;;;;;;5114549;28;19949;-70
2022/03/18 04:31:33;;;;;;;;;;;4.70;99.90;;;;;;5097117;28;19927;-69
2022/03/18 04:33:59;;;;;;;;;;;5.30;99.90;;;;;;5115460;28;19991;-68
2022/03/18 04:36:24;;;;;;;;;;;4.80;99.90;;;;;;5115224;28;20318;-71
2022/03/18 04:38:50;;;;;;;;;;;4.80;99.90;;;;;;5115203;28;19928;-69
2022/03/18 04:41:16;;;;;;;;;;;4.30;99.90;;;;;;5097060;28;19959;-70
2022/03/18 04:43:41;;;;;;;;;;;4.60;99.90;;;;;;5114977;28;19931;-73
2022/03/18 04:46:07;;;;;;;;;;;4.00;99.90;;;;;;5097251;28;19977;-69
2022/03/18 04:48:32;;;;;;;;;;;2.10;99.90;;;;;;5097153;28;20022;-69
2022/03/18 04:50:58;;;;;;;;;;;3.60;99.90;;;;;;5114866;28;19981;-71
2022/03/18 04:53:23;;;;;;;;;;;4.90;99.90;;;;;;5114818;28;19924;-69
2022/03/18 04:55:49;;;;;;;;;;;4.60;99.90;;;;;;5114949;28;19970;-71
2022/03/18 04:58:15;;;;;;;;;;;2.70;99.90;;;;;;5114716;28;20394;-70
2022/03/18 05:00:40;;;;;;;;;;;4.60;99.90;;;;;;5114912;28;20279;-70
2022/03/18 05:03:06;;;;;;;;;;;3.80;99.90;;;;;;5096209;28;20006;-68
2022/03/18 05:05:32;;;;;;;;;;;4.00;99.90;;;;;;5079695;28;19924;-67
2022/03/18 05:07:58;;;;;;;;;;;4.60;99.90;;;;;;5114651;28;19931;-69
2022/03/18 05:10:24;;;;;;;;;;;3.30;99.90;;;;;;5114279;28;19923;-68
2022/03/18 05:12:50;;;;;;;;;;;3.30;99.90;;;;;;5114444;28;19923;-69
2022/03/18 05:15:16;;;;;;;;;;;3.90;99.90;;;;;;5096524;28;19924;-69
2022/03/18 05:17:47;;;;;;;;;;;3.20;99.90;;;;;;5114594;28;19924;-72
2022/03/18 05:20:13;;;;;;;;;;;3.30;99.90;;;;;;5114161;28;20379;-69
2022/03/18 05:22:39;;;;;;;;;;;3.60;99.90;;;;;;5096560;28;19931;-70
2022/03/18 05:25:04;;;;;;;;;;;3.70;99.90;;;;;;5114412;28;19971;-69
2022/03/18 05:27:30;;;;;;;;;;;3.10;99.90;;;;;;5114341;28;19931;-71
2022/03/18 05:29:55;;;;;;;;;;;3.10;99.90;;;;;;5114059;28;20022;-67
2022/03/18 05:32:21;;;;;;;;;;;3.90;99.90;;;;;;5114275;28;20263;-68
2022/03/18 05:34:47;;;;;;;;;;;4.10;99.90;;;;;;5114452;28;19928;-69
2022/03/18 05:37:12;;;;;;;;;;;3.10;99.90;;;;;;5096364;28;19971;-69
2022/03/18 05:39:38;;;;;;;;;;;3.10;99.90;;;;;;5114239;28;20366;-71
2022/03/18 05:42:04;;;;;;;;;;;3.90;99.90;;;;;;5096212;28;19924;-71
2022/03/18 05:44:30;;;;;;;;;;;3.10;99.90;;;;;;5113995;28;20026;-73
2022/03/18 05:46:56;;;;;;;;;;;3.00;99.90;;;;;;5114325;28;20019;-73
2022/03/18 05:49:21;;;;;;;;;;;2.70;99.90;;;;;;5114031;28;20364;-69
2022/03/18 05:51:47;;;;;;;;;;;3.00;99.90;;;;;;5095940;28;20378;-69
2022/03/18 05:54:13;;;;;;;;;;;3.00;99.90;;;;;;5114119;28;19928;-71
2022/03/18 05:56:57;;;;;;;;;;;3.00;99.90;;;;;;5113962;28;19999;-68
2022/03/18 05:59:24;;;;;;;;;;;3.50;99.90;;;;;;5113910;28;19928;-69
2022/03/18 06:01:50;;;;;;;;;;;3.00;99.90;;;;;;5130352;28;20390;-70
2022/03/18 06:04:16;;;;;;;;;;;3.00;99.90;;;;;;5113842;28;20390;-72
2022/03/18 06:06:42;;;;;;;;;;;3.10;99.90;;;;;;5113955;28;19949;-72
2022/03/18 06:11:52;;;;;;;;;;;3.10;99.90;;;;;;5095210;28;20271;-73
2022/03/18 06:14:22;;;;;;;;;;;4.10;99.90;;;;;;5114037;28;19928;-71
2022/03/18 06:16:49;;;;;;;;;;;3.00;99.90;;;;;;5113960;28;19924;-69
2022/03/18 06:19:18;;;;;;;;;;;3.00;99.90;;;;;;5113758;28;19927;-72
2022/03/18 06:21:44;;;;;;;;;;;3.00;99.90;;;;;;5113787;28;20044;-68
2022/03/18 06:24:10;;;;;;;;;;;4.30;99.90;;;;;;5095896;28;20407;-71
2022/03/18 06:26:36;;;;;;;;;;;1.30;99.90;;;;;;5095445;28;20060;-69
2022/03/18 06:29:02;;;;;;;;;;;3.10;99.90;;;;;;5113907;28;20025;-70
2022/03/18 06:31:28;;;;;;;;;;;4.10;99.90;;;;;;5113574;28;19930;-69
2022/03/18 06:33:54;;;;;;;;;;;3.10;99.90;;;;;;5095579;28;19923;-69
2022/03/18 06:36:19;;;;;;;;;;;3.10;99.90;;;;;;5113690;28;19924;-69
2022/03/18 06:38:45;;;;;;;;;;;3.10;99.90;;;;;;5095732;28;19976;-69
2022/03/18 06:41:11;;;;;;;;;;;3.90;99.90;;;;;;5095261;28;20461;-68
2022/03/18 06:43:36;;;;;;;;;;;3.60;99.90;;;;;;5113862;28;19928;-71
2022/03/18 06:46:02;;;;;;;;;;;3.20;99.90;;;;;;5113644;28;19931;-69
2022/03/18 06:48:28;;;;;;;;;;;1.30;99.90;;;;;;5116968;28;19927;-69
2022/03/18 06:50:54;;;;;;;;;;;4.30;99.90;;;;;;5099041;28;19923;-68
2022/03/18 06:53:19;;;;;;;;;;;3.30;99.90;;;;;;5099317;28;19973;-68
2022/03/18 06:55:45;;;;;;;;;;;3.30;99.90;;;;;;5117174;28;19924;-69
2022/03/18 06:58:10;;;;;;;;;;;3.80;99.90;;;;;;5117026;28;19931;-69
2022/03/18 07:00:37;;;;;;;;;;;3.60;99.90;;;;;;5117279;28;19927;-69
2022/03/18 07:03:03;;;;;;;;;;;3.40;99.90;;;;;;5117138;28;19981;-69
2022/03/18 07:05:29;;;;;;;;;;;3.50;99.90;;;;;;5117029;28;20275;-69
2022/03/18 07:07:55;;;;;;;;;;;3.60;99.90;;;;;;5098998;28;19930;-68
2022/03/18 07:10:20;;;;;;;;;;;2.90;99.90;;;;;;5116770;28;19935;-72
2022/03/18 07:12:46;;;;;;;;;;;3.60;99.90;;;;;;5098479;28;19923;-68
2022/03/18 07:15:12;;;;;;;;;;;4.40;99.90;;;;;;5116949;28;19938;-69
2022/03/18 07:17:55;;;;;;;;;;;5.30;99.90;;;;;;5116923;28;20286;-69
2022/03/18 07:20:31;;;;;;;;;;;4.70;99.90;;;;;;5116966;28;19927;-69
2022/03/18 07:23:03;;;;;;;;;;;3.90;99.90;;;;;;5098793;28;20327;-70
2022/03/18 07:25:29;;;;;;;;;;;4.00;99.90;;;;;;5116596;28;20279;-70
2022/03/18 07:27:54;;;;;;;;;;;4.40;99.90;;;;;;5098369;28;19930;-69
2022/03/18 07:30:20;;;;;;;;;;;4.10;99.90;;;;;;5116483;28;19928;-69
2022/03/18 07:32:46;;;;;;;;;;;4.20;99.90;;;;;;5116553;28;20378;-73
2022/03/18 07:35:11;;;;;;;;;;;5.00;99.90;;;;;;5116440;28;19923;-70
2022/03/18 07:37:37;;;;;;;;;;;4.80;99.90;;;;;;5116447;28;19970;-69
2022/03/18 07:40:03;;;;;;;;;;;5.50;99.90;;;;;;5116344;28;19924;-69
2022/03/18 07:42:44;;;;;;;;;;;4.50;99.90;;;;;;5098126;28;20291;-69
2022/03/18 07:45:11;;;;;;;;;;;4.60;99.90;;;;;;5116328;28;19931;-68
2022/03/18 07:47:36;;;;;;;;;;;4.60;99.90;;;;;;5116335;28;19923;-68
2022/03/18 07:50:02;;;;;;;;;;;3.60;99.90;;;;;;5097543;28;20424;-69
2022/03/18 07:52:27;;;;;;;;;;;4.80;99.90;;;;;;5116059;28;20405;-70
2022/03/18 07:54:53;;;;;;;;;;;4.90;99.90;;;;;;5116041;28;19994;-68
2022/03/18 07:57:19;;;;;;;;;;;3.60;99.90;;;;;;5115900;28;20294;-69
2022/03/18 07:59:44;;;;;;;;;;;5.90;99.90;;;;;;5114973;28;19924;-69
2022/03/18 08:02:10;;;;;;;;;;;6.00;99.90;;;;;;5115876;28;19924;-69
2022/03/18 08:04:36;;;;;;;;;;;5.20;99.90;;;;;;5115842;28;19924;-69
2022/03/18 08:07:03;;;;;;;;;;;5.30;99.90;;;;;;5097840;28;19927;-74
2022/03/18 08:09:29;;;;;;;;;;;5.60;99.90;;;;;;5115645;28;19924;-71
2022/03/18 08:11:55;;;;;;;;;;;5.40;99.90;;;;;;5097547;28;19992;-70
2022/03/18 08:14:21;;;;;;;;;;;6.60;99.90;;;;;;5115811;28;20344;-70
2022/03/18 08:16:47;;;;;;;;;;;5.60;99.90;;;;;;5115772;28;19924;-69
2022/03/18 08:19:12;;;;;;;;;;;4.10;99.90;;;;;;5115639;28;19969;-69
2022/03/18 08:24:22;;;;;;;;;;;6.00;99.90;;;;;;5115585;28;19924;-72
2022/03/18 08:26:48;;;;;;;;;;;5.80;99.90;;;;;;5115294;28;19923;-71
2022/03/18 08:29:13;;;;;;;;;;;5.90;99.90;;;;;;5096712;28;19924;-69
2022/03/18 08:31:39;;;;;;;;;;;5.90;99.90;;;;;;5115205;28;19924;-69
2022/03/18 08:34:05;;;;;;;;;;;6.00;99.90;;;;;;5115312;28;19924;-69
2022/03/18 08:36:30;;;;;;;;;;;6.10;99.90;;;;;;5115161;28;19978;-71
2022/03/18 08:38:56;;;;;;;;;;;6.10;99.90;;;;;;5097115;28;20322;-70
2022/03/18 08:41:21;;;;;;;;;;;6.20;99.90;;;;;;5115177;28;19924;-69
2022/03/18 08:43:47;;;;;;;;;;;6.30;99.90;;;;;;5097276;28;20344;-71
2022/03/18 08:46:12;;;;;;;;;;;6.40;99.90;;;;;;5097211;28;19924;-70
2022/03/18 08:48:38;;;;;;;;;;;5.80;99.90;;;;;;5115061;28;19923;-69
2022/03/18 08:51:03;;;;;;;;;;;6.50;99.90;;;;;;5114711;28;19923;-69
2022/03/18 08:53:29;;;;;;;;;;;7.40;99.90;;;;;;5114853;28;19923;-69
2022/03/18 08:55:56;;;;;;;;;;;6.60;99.90;;;;;;5114882;28;19930;-72
2022/03/18 08:58:22;;;;;;;;;;;7.50;99.90;;;;;;5114701;28;20343;-73
2022/03/18 09:00:47;;;;;;;;;;;6.90;99.90;;;;;;5096750;28;19967;-69
2022/03/18 09:03:13;;;;;;;;;;;7.10;99.90;;;;;;5114808;28;19931;-69
2022/03/18 09:05:39;;;;;;;;;;;7.00;99.90;;;;;;5096767;28;19924;-70
2022/03/18 09:08:04;;;;;;;;;;;7.10;99.90;;;;;;5114570;28;19924;-70
2022/03/18 09:10:31;;;;;;;;;;;7.30;99.90;;;;;;5096052;28;19924;-69
2022/03/18 09:12:58;;;;;;;;;;;7.40;99.90;;;;;;5114666;28;19924;-69
2022/03/18 09:15:24;;;;;;;;;;;7.40;99.90;;;;;;5114644;28;20022;-71
2022/03/18 09:17:49;;;;;;;;;;;8.30;99.90;;;;;;5096658;28;19931;-69
2022/03/18 09:20:15;;;;;;;;;;;7.70;99.90;;;;;;5114655;28;19924;-69
2022/03/18 09:22:41;;;;;;;;;;;7.80;99.90;;;;;;5114450;28;19967;-69
2022/03/18 09:25:06;;;;;;;;;;;7.90;99.90;;;;;;5114383;28;20297;-69
2022/03/18 09:27:32;;;;;;;;;;;8.00;99.90;;;;;;5096125;28;19998;-69
2022/03/18 09:30:00;;;;;;;;;;;8.10;99.90;;;;;;5096171;28;19978;-69
2022/03/18 09:32:26;;;;;;;;;;;8.20;99.90;;;;;;5114351;28;19924;-69
2022/03/18 09:34:52;;;;;;;;;;;8.60;99.90;;;;;;5114361;28;20305;-73
2022/03/18 09:37:17;;;;;;;;;;;8.50;99.90;;;;;;5096374;28;20018;-69
2022/03/18 09:39:43;;;;;;;;;;;8.70;99.90;;;;;;5096238;28;19924;-70
2022/03/18 09:42:08;;;;;;;;;;;8.10;99.90;;;;;;5095996;28;19931;-69
2022/03/18 09:44:36;;;;;;;;;;;8.70;99.90;;;;;;5096400;28;19969;-73
2022/03/18 09:47:02;;;;;;;;;;;9.20;99.90;;;;;;5114215;28;20382;-71
2022/03/18 09:49:28;;;;;;;;;;;8.90;99.90;;;;;;5114130;28;19924;-70
2022/03/18 09:51:54;;;;;;;;;;;9.00;99.90;;;;;;5095848;28;19924;-70
2022/03/18 09:54:19;;;;;;;;;;;9.10;99.90;;;;;;5096017;28;19931;-70
2022/03/18 09:56:46;;;;;;;;;;;9.20;99.90;;;;;;5095951;28;19982;-70
2022/03/18 09:59:12;;;;;;;;;;;9.40;99.90;;;;;;5096195;28;20444;-69
2022/03/18 10:01:38;;;;;;;;;;;9.30;99.90;;;;;;5114105;28;19923;-69
2022/03/18 10:04:08;;;;;;;;;;;9.40;99.90;;;;;;5114041;28;20275;-71
2022/03/18 10:06:34;;;;;;;;;;;9.50;99.90;;;;;;5113938;28;20004;-71
2022/03/18 10:09:00;;;;;;;;;;;9.60;99.90;;;;;;5113858;28;19924;-71
2022/03/18 10:11:27;;;;;;;;;;;9.70;99.90;;;;;;5113733;28;19931;-73
2022/03/18 10:13:54;;;;;;;;;;;9.80;99.90;;;;;;5114014;28;19950;-70
2022/03/18 10:16:33;;;;;;;;;;;9.90;99.90;;;;;;5113903;28;19924;-70
2022/03/18 10:18:59;;;;;;;;;;;9.40;99.90;;;;;;5113861;28;20303;-70
2022/03/18 10:21:25;;;;;;;;;;;10.50;99.90;;;;;;5114067;28;20312;-70
2022/03/18 10:24:03;;;;;;;;;;;10.20;99.90;;;;;;5099832;28;19928;-68
2022/03/18 10:26:28;;;;;;;;;;;10.30;99.90;;;;;;5117900;28;19924;-70
2022/03/18 10:28:58;;;;;;;;;;;10.40;99.90;;;;;;5117869;28;19931;-70
2022/03/18 10:31:25;;;;;;;;;;;10.50;99.90;;;;;;5117505;28;20022;-70
2022/03/18 10:39:25;;;;;;;;;;;10.80;99.90;;;;;;5117675;28;19932;-72
2022/03/18 10:41:51;;;;;;;;;;;10.90;99.90;;;;;;5099299;28;19923;-72
2022/03/18 10:44:17;;;;;;;;;;;11.00;99.90;;;;;;5099595;28;19924;-73
2022/03/18 10:46:43;;;;;;;;;;;11.00;99.90;;;;;;5117421;28;19924;-70
2022/03/18 10:49:10;;;;;;;;;;;11.10;99.90;;;;;;5099379;28;19927;-72
2022/03/18 10:51:36;;;;;;;;;;;11.10;99.90;;;;;;5117517;28;19924;-68
2022/03/18 10:54:02;;;;;;;;;;;11.30;99.90;;;;;;5099217;28;19924;-70
2022/03/18 10:56:27;;;;;;;;;;;11.30;99.90;;;;;;5117223;28;19976;-70
2022/03/18 10:58:53;;;;;;;;;;;11.50;99.90;;;;;;5117179;28;20018;-71
2022/03/18 11:01:19;;;;;;;;;;;11.50;99.90;;;;;;5099085;28;20015;-70
2022/03/18 11:03:45;;;;;;;;;;;11.50;99.90;;;;;;5116958;28;19990;-71
2022/03/18 11:06:11;;;;;;;;;;;11.70;99.90;;;;;;5117093;28;19924;-71
2022/03/18 11:08:46;;;;;;;;;;;11.70;99.90;;;;;;5117099;28;19931;-73
2022/03/18 11:11:20;;;;;;;;;;;11.70;99.90;;;;;;5116889;28;20275;-70
2022/03/18 11:14:00;;;;;;;;;;;11.80;99.90;;;;;;5116885;28;19978;-70
2022/03/18 11:16:27;;;;;;;;;;;12.00;99.90;;;;;;5098847;28;19924;-71
2022/03/18 11:18:53;;;;;;;;;;;12.00;99.90;;;;;;5116998;28;20267;-70
2022/03/18 11:21:21;;;;;;;;;;;12.10;99.90;;;;;;5132962;27;19923;-70
2022/03/18 11:23:47;;;;;;;;;;;12.20;99.90;;;;;;5116601;28;20402;-72
2022/03/18 11:26:14;;;;;;;;;;;11.50;99.90;;;;;;5098718;28;20348;-70
2022/03/18 11:28:40;;;;;;;;;;;12.40;99.90;;;;;;5098187;28;19923;-70
2022/03/18 11:31:06;;;;;;;;;;;12.50;99.90;;;;;;5116270;28;19924;-73
2022/03/18 11:33:36;;;;;;;;;;;12.60;99.90;;;;;;5116353;28;20397;-70
2022/03/18 11:36:02;;;;;;;;;;;12.60;99.90;;;;;;5116598;28;20006;-70
2022/03/18 11:38:47;;;;;;;;;;;12.60;99.90;;;;;;5116468;28;20020;-73
2022/03/18 11:41:13;;;;;;;;;;;12.70;99.90;;;;;;5116262;28;19924;-73
2022/03/18 11:43:42;;;;;;;;;;;12.70;99.90;;;;;;5116201;28;19971;-73
2022/03/18 11:46:13;;;;;;;;;;;12.80;99.90;;;;;;5116453;28;20014;-70
2022/03/18 11:48:57;;;;;;;;;;;12.90;99.90;;;;;;5116332;28;20371;-70
2022/03/18 11:51:24;;;;;;;;;;;12.90;99.90;;;;;;5116061;28;19924;-73
2022/03/18 11:53:54;;;;;;;;;;;12.90;99.90;;;;;;5116012;28;20022;-74
2022/03/18 11:56:40;;;;;;;;;;;13.00;99.90;;;;;;5115875;28;19924;-70
2022/03/18 11:59:27;;;;;;;;;;;13.00;99.90;;;;;;5116097;28;19938;-70
2022/03/18 12:01:53;;;;;;;;;;;13.10;99.90;;;;;;5115971;28;19924;-69
2022/03/18 12:04:34;;;;;;;;;;;13.10;99.90;;;;;;5115862;28;20397;-73
2022/03/18 12:07:12;;;;;;;;;;;13.10;99.90;;;;;;5115700;28;19923;-70
2022/03/18 12:09:55;;;;;;;;;;;13.20;99.90;;;;;;5115833;28;19923;-71
2022/03/18 12:12:22;;;;;;;;;;;13.20;99.90;;;;;;5115394;28;19924;-70
2022/03/18 12:14:47;;;;;;;;;;;13.20;99.90;;;;;;5115727;28;19924;-69
2022/03/18 12:17:13;;;;;;;;;;;13.30;99.90;;;;;;5115516;28;20302;-70
2022/03/18 12:19:39;;;;;;;;;;;12.80;99.90;;;;;;5097769;28;19923;-71
2022/03/18 12:22:05;;;;;;;;;;;13.30;99.90;;;;;;5115703;28;19931;-70
2022/03/18 12:24:32;;;;;;;;;;;13.40;99.90;;;;;;5115507;28;20464;-70
2022/03/18 12:27:00;;;;;;;;;;;13.50;99.90;;;;;;5115198;28;19959;-70
2022/03/18 12:29:26;;;;;;;;;;;13.50;99.90;;;;;;5115325;28;19923;-70
2022/03/18 12:32:06;;;;;;;;;;;13.50;99.90;;;;;;5115139;28;20018;-71
2022/03/18 12:34:32;;;;;;;;;;;13.60;99.90;;;;;;5115484;28;19932;-70
2022/03/18 12:36:58;;;;;;;;;;;13.60;99.90;;;;;;5115306;28;20018;-70
2022/03/18 12:39:26;;;;;;;;;;;13.60;99.90;;;;;;5096919;28;19981;-73
2022/03/18 12:42:04;;;;;;;;;;;13.60;99.90;;;;;;5115028;28;20022;-71
2022/03/18 12:44:30;;;;;;;;;;;13.70;99.90;;;;;;5114360;28;19924;-72
2022/03/18 12:46:57;;;;;;;;;;;13.70;99.90;;;;;;5115210;28;19928;-70
2022/03/18 12:49:33;;;;;;;;;;;13.70;99.90;;;;;;5096887;28;19924;-70
2022/03/18 12:51:59;;;;;;;;;;;13.70;99.90;;;;;;5114898;28;20293;-72
2022/03/18 12:54:25;;;;;;;;;;;13.70;99.90;;;;;;5114852;28;20014;-70
2022/03/18 12:56:50;;;;;;;;;;;13.70;99.90;;;;;;5114869;28;19941;-70
2022/03/18 12:59:16;;;;;;;;;;;13.70;99.90;;;;;;5096199;28;19924;-73
2022/03/18 13:02:08;;;;;;;;;;;13.70;99.90;;;;;;5114917;28;19931;-70
2022/03/18 13:04:36;;;;;;;;;;;13.60;99.90;;;;;;5111580;28;20294;-71
2022/03/18 13:07:02;;;;;;;;;;;15.00;99.90;;;;;;5096425;28;19946;-73
2022/03/18 13:09:28;;;;;;;;;;;13.70;99.90;;;;;;5114663;28;19924;-70
2022/03/18 13:11:54;;;;;;;;;;;13.70;99.90;;;;;;5114348;28;19923;-70
2022/03/18 13:14:42;;;;;;;;;;;13.70;99.90;;;;;;5114764;28;20012;-70
2022/03/18 13:17:19;;;;;;;;;;;13.70;99.90;;;;;;5114335;28;20458;-70
2022/03/18 13:19:50;;;;;;;;;;;13.20;99.90;;;;;;5114526;28;19928;-71
2022/03/18 13:22:23;;;;;;;;;;;13.60;99.90;;;;;;5114394;28;19924;-72
2022/03/18 13:24:50;;;;;;;;;;;13.70;99.90;;;;;;5114294;28;20014;-70
2022/03/18 13:27:20;;;;;;;;;;;13.70;99.90;;;;;;5114286;28;19923;-70
2022/03/18 13:32:50;;;;;;;;;;;13.60;99.90;;;;;;5114249;28;20020;-70
2022/03/18 13:35:16;;;;;;;;;;;13.70;99.90;;;;;;5114411;28;19924;-69
2022/03/18 13:37:43;;;;;;;;;;;13.60;99.90;;;;;;5114279;28;19939;-70
2022/03/18 13:40:13;;;;;;;;;;;13.60;99.90;;;;;;5095942;28;20285;-70
2022/03/18 13:42:38;;;;;;;;;;;13.60;99.90;;;;;;5114165;28;19928;-70
2022/03/18 13:45:04;;;;;;;;;;;13.60;99.90;;;;;;5114158;28;20325;-71
2022/03/18 13:47:43;;;;;;;;;;;13.60;99.90;;;;;;5113994;28;20010;-71
2022/03/18 13:50:09;;;;;;;;;;;13.60;99.90;;;;;;5095865;28;20539;-72
2022/03/18 13:52:36;;;;;;;;;;;13.50;99.90;;;;;;5114239;28;19924;-70
2022/03/18 13:55:03;;;;;;;;;;;13.50;99.90;;;;;;5114051;28;19927;-70
2022/03/18 13:57:42;;;;;;;;;;;13.60;99.90;;;;;;5118035;28;19924;-69
2022/03/18 14:00:08;;;;;;;;;;;13.60;99.90;;;;;;5118259;28;19924;-70
2022/03/18 14:02:36;;;;;;;;;;;13.60;99.90;;;;;;5118344;28;20378;-70
2022/03/18 14:05:02;;;;;;;;;;;13.60;99.90;;;;;;5118416;28;19932;-74
2022/03/18 14:07:43;;;;;;;;;;;13.60;99.90;;;;;;5118261;28;19970;-70
2022/03/18 14:10:09;;;;;;;;;;;13.60;99.90;;;;;;5118057;28;20294;-70
2022/03/18 14:12:35;;;;;;;;;;;13.70;99.90;;;;;;5117968;28;19931;-70
2022/03/18 14:15:11;;;;;;;;;;;13.70;99.90;;;;;;5117911;28;19923;-70
2022/03/18 14:17:54;;;;;;;;;;;13.70;99.90;;;;;;5118197;28;19974;-70
2022/03/18 14:20:19;;;;;;;;;;;13.70;99.90;;;;;;5118046;28;20385;-71
2022/03/18 14:22:46;;;;;;;;;;;13.80;99.90;;;;;;5117732;28;19924;-71
2022/03/18 14:25:12;;;;;;;;;;;13.80;99.90;;;;;;5117743;28;20021;-70
2022/03/18 14:27:39;;;;;;;;;;;13.60;99.90;;;;;;5099317;28;19943;-72
2022/03/18 14:30:12;;;;;;;;;;;13.90;99.90;;;;;;5117790;28;19931;-71
2022/03/18 14:32:38;;;;;;;;;;;13.90;99.90;;;;;;5099869;28;19924;-70
2022/03/18 14:35:04;;;;;;;;;;;13.70;99.90;;;;;;5138053;27;19930;-71
2022/03/18 14:37:34;;;;;;;;;;;13.60;99.90;;;;;;5138150;27;20027;-70
2022/03/18 14:40:00;;;;;;;;;;;13.60;99.90;;;;;;5138000;27;20293;-73
2022/03/18 14:42:26;;;;;;;;;;;13.70;99.90;;;;;;5138132;27;19930;-70
2022/03/18 14:44:52;;;;;;;;;;;13.70;99.90;;;;;;5138168;27;20014;-69